createdAt,value
2018-03-26T00:00:05.041Z,2.01
2018-03-26T00:00:54.107Z,1.98
2018-03-26T00:01:43.236Z,1.98
2018-03-26T00:02:32.293Z,2.03
2018-03-26T00:03:21.357Z,2.00
2018-03-26T00:04:10.447Z,2.02
2018-03-26T00:04:59.580Z,2.07
2018-03-26T00:05:48.633Z,2.08
2018-03-26T00:06:37.786Z,2.01
2018-03-26T00:07:26.876Z,1.98
2018-03-26T00:08:15.949Z,1.96
2018-03-26T00:09:05.054Z,1.93
2018-03-26T00:09:54.158Z,1.99
2018-03-26T00:10:43.217Z,1.96
2018-03-26T00:11:32.302Z,1.94
2018-03-26T00:12:21.442Z,1.96
2018-03-26T00:13:10.571Z,1.71
2018-03-26T00:13:59.689Z,1.79
2018-03-26T00:14:48.751Z,1.85
2018-03-26T00:15:37.854Z,1.84
2018-03-26T00:16:26.915Z,1.86
2018-03-26T00:17:15.975Z,1.85
2018-03-26T00:18:05.047Z,1.86
2018-03-26T00:18:54.112Z,1.73
2018-03-26T00:19:43.339Z,1.52
2018-03-26T00:20:32.510Z,1.57
2018-03-26T00:21:21.559Z,1.62
2018-03-26T00:22:10.725Z,1.66
2018-03-26T00:22:59.792Z,1.73
2018-03-26T00:23:48.870Z,1.77
2018-03-26T00:24:37.955Z,1.82
2018-03-26T00:25:27.024Z,1.83
2018-03-26T00:26:16.086Z,1.85
2018-03-26T00:27:05.162Z,1.95
2018-03-26T00:27:54.319Z,1.99
2018-03-26T00:28:43.392Z,1.99
2018-03-26T00:29:32.496Z,1.85
2018-03-26T00:30:21.562Z,1.85
2018-03-26T00:31:10.628Z,1.91
2018-03-26T00:31:59.695Z,1.86
2018-03-26T00:32:48.861Z,1.84
2018-03-26T00:33:37.935Z,1.86
2018-03-26T00:34:27.004Z,1.89
2018-03-26T00:35:16.112Z,1.86
2018-03-26T00:36:05.318Z,1.89
2018-03-26T00:36:54.395Z,1.90
2018-03-26T00:37:43.467Z,1.90
2018-03-26T00:38:32.530Z,1.86
2018-03-26T00:39:21.621Z,1.87
2018-03-26T00:40:10.732Z,1.95
2018-03-26T00:40:59.931Z,1.92
2018-03-26T00:41:49.046Z,1.96
2018-03-26T00:42:38.126Z,1.84
2018-03-26T00:43:27.227Z,1.84
2018-03-26T00:44:16.310Z,1.77
2018-03-26T00:45:05.435Z,1.79
2018-03-26T00:45:54.500Z,1.78
2018-03-26T00:46:43.604Z,1.82
2018-03-26T00:47:32.701Z,1.87
2018-03-26T00:48:21.781Z,1.91
2018-03-26T00:49:10.863Z,1.98
2018-03-26T00:50:00.136Z,2.04
2018-03-26T00:50:49.266Z,2.11
2018-03-26T00:51:38.375Z,2.09
2018-03-26T00:52:27.504Z,2.12
2018-03-26T00:53:28.330Z,2.14
2018-03-26T00:54:17.441Z,2.05
2018-03-26T00:55:06.547Z,2.03
2018-03-26T00:55:55.713Z,1.96
2018-03-26T00:56:44.812Z,1.99
2018-03-26T00:57:33.990Z,1.96
2018-03-26T00:58:23.086Z,2.01
2018-03-26T00:59:12.151Z,1.90
2018-03-26T01:00:01.213Z,1.77
2018-03-26T01:00:50.377Z,1.79
2018-03-26T01:01:39.464Z,1.75
2018-03-26T01:02:28.546Z,1.67
2018-03-26T01:03:17.628Z,1.63
2018-03-26T01:04:06.752Z,1.69
2018-03-26T01:04:55.833Z,1.69
2018-03-26T01:05:44.914Z,1.59
2018-03-26T01:06:34.074Z,1.78
2018-03-26T01:07:23.163Z,1.88
2018-03-26T01:08:12.224Z,1.84
2018-03-26T01:09:10.110Z,1.80
2018-03-26T01:09:59.211Z,1.84
2018-03-26T01:10:48.284Z,1.85
2018-03-26T01:11:37.367Z,1.77
2018-03-26T01:12:26.462Z,1.73
2018-03-26T01:13:15.520Z,1.76
2018-03-26T01:14:04.613Z,1.81
2018-03-26T01:14:53.682Z,1.87
2018-03-26T01:15:42.904Z,1.92
2018-03-26T01:16:31.980Z,1.91
2018-03-26T01:17:21.046Z,1.99
2018-03-26T01:18:10.127Z,2.06
2018-03-26T01:18:59.229Z,2.12
2018-03-26T01:19:48.303Z,2.12
2018-03-26T01:20:37.362Z,2.06
2018-03-26T01:21:26.471Z,2.09
2018-03-26T01:22:15.559Z,2.14
2018-03-26T01:23:04.722Z,2.17
2018-03-26T01:23:53.798Z,2.18
2018-03-26T01:24:42.939Z,2.20
2018-03-26T01:25:32.018Z,2.11
2018-03-26T01:26:21.130Z,2.11
2018-03-26T01:27:10.208Z,2.13
2018-03-26T01:27:59.282Z,2.08
2018-03-26T01:28:48.368Z,2.12
2018-03-26T01:29:37.495Z,2.08
2018-03-26T01:30:26.571Z,2.11
2018-03-26T01:31:15.866Z,2.15
2018-03-26T01:32:04.954Z,2.21
2018-03-26T01:32:54.017Z,2.21
2018-03-26T01:33:43.097Z,2.21
2018-03-26T01:34:32.180Z,2.21
2018-03-26T01:35:21.267Z,2.27
2018-03-26T01:36:10.338Z,2.26
2018-03-26T01:36:59.456Z,2.25
2018-03-26T01:37:48.522Z,2.21
2018-03-26T01:38:37.586Z,2.23
2018-03-26T01:39:26.682Z,2.22
2018-03-26T01:40:15.766Z,2.19
2018-03-26T01:41:04.855Z,2.16
2018-03-26T01:41:53.961Z,2.08
2018-03-26T01:42:43.070Z,2.08
2018-03-26T01:43:32.121Z,2.00
2018-03-26T01:44:21.189Z,2.03
2018-03-26T01:45:10.303Z,2.07
2018-03-26T01:45:59.359Z,2.06
2018-03-26T01:46:48.432Z,1.93
2018-03-26T01:47:37.496Z,1.97
2018-03-26T01:48:26.658Z,1.94
2018-03-26T01:49:15.720Z,1.98
2018-03-26T01:50:04.850Z,2.08
2018-03-26T01:50:53.917Z,2.13
2018-03-26T01:51:42.996Z,2.10
2018-03-26T01:52:32.064Z,1.99
2018-03-26T01:53:21.169Z,1.95
2018-03-26T01:54:10.394Z,1.99
2018-03-26T01:54:59.465Z,1.91
2018-03-26T01:55:48.539Z,2.01
2018-03-26T01:56:39.207Z,2.01
2018-03-26T01:57:28.308Z,2.10
2018-03-26T01:58:17.376Z,2.06
2018-03-26T01:59:06.482Z,2.06
2018-03-26T01:59:55.545Z,2.01
2018-03-26T02:00:44.607Z,2.10
2018-03-26T02:01:33.677Z,2.12
2018-03-26T02:02:22.741Z,2.10
2018-03-26T02:03:11.849Z,1.98
2018-03-26T02:04:00.914Z,2.00
2018-03-26T02:04:50.012Z,1.97
2018-03-26T02:05:39.174Z,1.95
2018-03-26T02:06:28.253Z,1.99
2018-03-26T02:07:17.318Z,1.97
2018-03-26T02:08:06.394Z,1.97
2018-03-26T02:08:55.606Z,2.00
2018-03-26T02:09:44.664Z,1.99
2018-03-26T02:10:33.783Z,2.02
2018-03-26T02:11:22.854Z,1.98
2018-03-26T02:12:11.988Z,1.97
2018-03-26T02:13:01.050Z,1.93
2018-03-26T02:13:50.121Z,2.01
2018-03-26T02:14:39.238Z,2.01
2018-03-26T02:15:28.321Z,2.02
2018-03-26T02:16:17.388Z,2.01
2018-03-26T02:17:06.452Z,2.04
2018-03-26T02:17:55.515Z,2.04
2018-03-26T02:18:44.624Z,2.04
2018-03-26T02:19:33.698Z,2.01
2018-03-26T02:20:22.909Z,2.02
2018-03-26T02:21:11.989Z,1.98
2018-03-26T02:22:01.115Z,1.92
2018-03-26T02:22:50.194Z,1.97
2018-03-26T02:23:39.283Z,1.94
2018-03-26T02:24:28.392Z,1.92
2018-03-26T02:25:17.491Z,1.95
2018-03-26T02:26:06.576Z,2.01
2018-03-26T02:26:55.681Z,1.99
2018-03-26T02:27:44.809Z,1.94
2018-03-26T02:28:33.896Z,2.01
2018-03-26T02:29:22.970Z,2.10
2018-03-26T02:30:12.051Z,2.07
2018-03-26T02:31:01.157Z,2.16
2018-03-26T02:31:50.233Z,2.16
2018-03-26T02:32:39.367Z,2.11
2018-03-26T02:33:28.438Z,2.06
2018-03-26T02:34:17.510Z,2.04
2018-03-26T02:35:06.589Z,2.06
2018-03-26T02:35:55.675Z,1.99
2018-03-26T02:36:44.739Z,1.97
2018-03-26T02:37:33.952Z,1.98
2018-03-26T02:38:23.019Z,1.97
2018-03-26T02:39:12.083Z,1.96
2018-03-26T02:40:01.152Z,1.89
2018-03-26T02:40:50.225Z,1.88
2018-03-26T02:41:39.294Z,1.95
2018-03-26T02:42:28.350Z,2.00
2018-03-26T02:43:17.459Z,2.04
2018-03-26T02:44:06.549Z,2.03
2018-03-26T02:44:55.629Z,1.99
2018-03-26T02:45:44.699Z,1.89
2018-03-26T02:46:33.770Z,1.70
2018-03-26T02:47:22.855Z,1.47
2018-03-26T02:48:11.944Z,1.41
2018-03-26T02:49:01.183Z,1.37
2018-03-26T02:49:50.258Z,1.46
2018-03-26T02:50:39.446Z,1.61
2018-03-26T02:51:28.497Z,1.71
2018-03-26T02:52:17.631Z,1.78
2018-03-26T02:53:06.711Z,1.75
2018-03-26T02:53:55.931Z,1.84
2018-03-26T02:54:45.022Z,1.86
2018-03-26T02:55:34.110Z,1.84
2018-03-26T02:56:23.190Z,1.83
2018-03-26T02:57:12.276Z,1.83
2018-03-26T02:58:01.364Z,1.81
2018-03-26T02:58:50.473Z,1.78
2018-03-26T02:59:40.595Z,1.64
2018-03-26T03:00:29.691Z,1.62
2018-03-26T03:01:18.782Z,1.56
2018-03-26T03:02:07.886Z,1.44
2018-03-26T03:02:56.972Z,1.33
2018-03-26T03:03:46.067Z,1.47
2018-03-26T03:04:35.157Z,1.53
2018-03-26T03:05:24.278Z,1.45
2018-03-26T03:06:16.440Z,1.34
2018-03-26T03:07:05.520Z,1.36
2018-03-26T03:07:54.611Z,1.41
2018-03-26T03:08:43.688Z,1.41
2018-03-26T03:09:32.772Z,1.38
2018-03-26T03:10:21.898Z,1.36
2018-03-26T03:11:11.128Z,1.29
2018-03-26T03:12:00.200Z,1.23
2018-03-26T03:12:49.278Z,1.31
2018-03-26T03:13:38.379Z,1.49
2018-03-26T03:14:27.463Z,1.53
2018-03-26T03:15:16.537Z,1.55
2018-03-26T03:16:05.622Z,1.60
2018-03-26T03:16:54.939Z,1.65
2018-03-26T03:17:44.021Z,1.70
2018-03-26T03:18:33.090Z,1.73
2018-03-26T03:19:22.170Z,1.77
2018-03-26T03:20:11.245Z,1.78
2018-03-26T03:21:00.322Z,1.75
2018-03-26T03:21:49.392Z,1.75
2018-03-26T03:22:38.573Z,1.75
2018-03-26T03:23:27.608Z,1.78
2018-03-26T03:24:16.689Z,1.81
2018-03-26T03:25:05.829Z,1.64
2018-03-26T03:25:54.913Z,1.53
2018-03-26T03:26:44.019Z,1.37
2018-03-26T03:27:33.094Z,1.47
2018-03-26T03:28:22.192Z,1.49
2018-03-26T03:29:11.266Z,1.53
2018-03-26T03:30:00.341Z,1.61
2018-03-26T03:30:50.313Z,1.63
2018-03-26T03:31:39.387Z,1.73
2018-03-26T03:32:28.463Z,1.69
2018-03-26T03:33:17.543Z,1.75
2018-03-26T03:34:09.861Z,1.77
2018-03-26T03:34:58.932Z,1.73
2018-03-26T03:35:48.037Z,1.73
2018-03-26T03:36:37.113Z,1.75
2018-03-26T03:37:26.205Z,1.78
2018-03-26T03:38:15.273Z,1.81
2018-03-26T03:39:04.405Z,1.97
2018-03-26T03:39:53.515Z,1.95
2018-03-26T03:40:42.582Z,1.98
2018-03-26T03:41:31.666Z,1.97
2018-03-26T03:42:20.743Z,1.95
2018-03-26T03:43:09.856Z,1.99
2018-03-26T03:43:58.955Z,2.03
2018-03-26T03:44:48.049Z,2.01
2018-03-26T03:45:38.073Z,2.03
2018-03-26T03:46:27.144Z,1.97
2018-03-26T03:47:16.226Z,1.97
2018-03-26T03:48:05.334Z,2.14
2018-03-26T03:48:54.479Z,2.19
2018-03-26T03:49:43.566Z,2.18
2018-03-26T03:50:32.670Z,2.12
2018-03-26T03:51:21.756Z,2.21
2018-03-26T03:52:10.833Z,2.22
2018-03-26T03:52:59.960Z,2.34
2018-03-26T03:53:49.214Z,2.49
2018-03-26T03:54:38.429Z,2.47
2018-03-26T03:55:27.539Z,2.48
2018-03-26T03:56:16.613Z,2.42
2018-03-26T03:57:05.714Z,2.36
2018-03-26T03:57:54.903Z,2.30
2018-03-26T03:58:44.023Z,2.33
2018-03-26T03:59:36.142Z,2.31
2018-03-26T04:00:25.209Z,2.38
2018-03-26T04:01:14.289Z,2.38
2018-03-26T04:02:03.386Z,2.38
2018-03-26T04:02:52.478Z,2.41
2018-03-26T04:03:41.621Z,2.41
2018-03-26T04:04:30.709Z,2.41
2018-03-26T04:05:19.806Z,2.33
2018-03-26T04:06:08.920Z,2.22
2018-03-26T04:06:58.054Z,2.19
2018-03-26T04:07:47.154Z,2.14
2018-03-26T04:08:36.247Z,2.13
2018-03-26T04:09:25.452Z,2.23
2018-03-26T04:10:14.531Z,2.30
2018-03-26T04:11:03.680Z,2.32
2018-03-26T04:11:52.757Z,2.26
2018-03-26T04:12:41.830Z,2.21
2018-03-26T04:13:30.906Z,2.10
2018-03-26T04:14:20.107Z,2.13
2018-03-26T04:15:09.209Z,2.13
2018-03-26T04:15:58.287Z,2.14
2018-03-26T04:16:47.361Z,2.16
2018-03-26T04:17:36.625Z,2.17
2018-03-26T04:18:25.714Z,2.17
2018-03-26T04:19:14.820Z,2.15
2018-03-26T04:20:03.969Z,2.14
2018-03-26T04:20:53.038Z,2.18
2018-03-26T04:21:42.119Z,2.18
2018-03-26T04:22:31.235Z,2.20
2018-03-26T04:23:20.315Z,2.21
2018-03-26T04:24:09.394Z,2.24
2018-03-26T04:24:58.481Z,2.22
2018-03-26T04:25:47.729Z,2.23
2018-03-26T04:26:36.850Z,2.18
2018-03-26T04:27:25.974Z,2.18
2018-03-26T04:28:15.055Z,2.21
2018-03-26T04:29:04.259Z,2.18
2018-03-26T04:29:53.441Z,2.16
2018-03-26T04:30:42.599Z,2.17
2018-03-26T04:31:31.742Z,2.14
2018-03-26T04:32:20.906Z,2.20
2018-03-26T04:33:10.158Z,2.23
2018-03-26T04:33:59.272Z,2.26
2018-03-26T04:34:48.413Z,2.25
2018-03-26T04:35:37.516Z,2.15
2018-03-26T04:36:26.841Z,2.21
2018-03-26T04:37:15.998Z,2.24
2018-03-26T04:38:05.146Z,2.24
2018-03-26T04:38:54.262Z,2.24
2018-03-26T04:39:43.431Z,2.26
2018-03-26T04:40:32.648Z,2.29
2018-03-26T04:41:21.874Z,2.21
2018-03-26T04:42:11.023Z,2.16
2018-03-26T04:43:00.166Z,2.20
2018-03-26T04:43:49.291Z,2.14
2018-03-26T04:44:38.422Z,2.21
2018-03-26T04:45:27.529Z,2.29
2018-03-26T04:46:16.674Z,2.30
2018-03-26T04:47:05.777Z,2.18
2018-03-26T04:47:54.973Z,2.14
2018-03-26T04:48:44.144Z,2.21
2018-03-26T04:49:33.221Z,2.26
2018-03-26T04:50:22.505Z,2.34
2018-03-26T04:51:11.639Z,2.36
2018-03-26T04:52:00.715Z,2.31
2018-03-26T04:52:49.834Z,2.25
2018-03-26T04:53:39.146Z,2.26
2018-03-26T04:54:28.241Z,2.29
2018-03-26T04:55:17.345Z,2.35
2018-03-26T04:56:06.451Z,2.42
2018-03-26T04:56:55.819Z,2.42
2018-03-26T04:57:44.939Z,2.45
2018-03-26T04:58:34.762Z,2.50
2018-03-26T04:59:23.864Z,2.52
2018-03-26T05:00:13.090Z,2.53
2018-03-26T05:01:02.242Z,2.51
2018-03-26T05:01:51.356Z,2.56
2018-03-26T05:02:40.424Z,2.58
2018-03-26T05:03:31.334Z,2.52
2018-03-26T05:04:20.474Z,2.46
2018-03-26T05:05:09.648Z,2.44
2018-03-26T05:05:58.807Z,2.45
2018-03-26T05:06:47.952Z,2.48
2018-03-26T05:07:37.414Z,2.46
2018-03-26T05:08:26.606Z,2.49
2018-03-26T05:09:15.721Z,2.49
2018-03-26T05:10:04.854Z,2.47
2018-03-26T05:10:53.968Z,2.48
2018-03-26T05:11:43.148Z,2.56
2018-03-26T05:12:32.268Z,2.60
2018-03-26T05:13:21.425Z,2.69
2018-03-26T05:14:10.590Z,2.62
2018-03-26T05:14:59.675Z,2.63
2018-03-26T05:15:48.753Z,2.60
2018-03-26T05:16:37.865Z,2.59
2018-03-26T05:17:26.969Z,2.65
2018-03-26T05:18:16.087Z,2.67
2018-03-26T05:19:05.195Z,2.61
2018-03-26T05:19:54.578Z,2.61
2018-03-26T05:20:43.682Z,2.64
2018-03-26T05:21:32.799Z,2.64
2018-03-26T05:22:21.909Z,2.64
2018-03-26T05:23:11.014Z,2.62
2018-03-26T05:24:00.211Z,2.54
2018-03-26T05:24:49.314Z,2.49
2018-03-26T05:25:38.415Z,2.39
2018-03-26T05:26:27.531Z,2.25
2018-03-26T05:27:16.665Z,2.13
2018-03-26T05:28:05.773Z,2.27
2018-03-26T05:28:54.884Z,2.38
2018-03-26T05:29:44.071Z,2.43
2018-03-26T05:30:33.162Z,2.52
2018-03-26T05:31:22.284Z,2.53
2018-03-26T05:32:11.411Z,2.55
2018-03-26T05:33:00.514Z,2.63
2018-03-26T05:33:49.640Z,2.60
2018-03-26T05:34:38.790Z,2.62
2018-03-26T05:35:27.885Z,2.53
2018-03-26T05:36:17.030Z,2.48
2018-03-26T05:37:06.140Z,2.49
2018-03-26T05:37:55.494Z,2.49
2018-03-26T05:38:44.586Z,2.47
2018-03-26T05:39:33.786Z,2.47
2018-03-26T05:40:23.088Z,2.56
2018-03-26T05:41:12.323Z,2.56
2018-03-26T05:42:01.405Z,2.55
2018-03-26T05:42:50.503Z,2.60
2018-03-26T05:43:39.617Z,2.72
2018-03-26T05:44:28.738Z,2.79
2018-03-26T05:45:17.962Z,2.80
2018-03-26T05:46:07.092Z,2.71
2018-03-26T05:47:02.314Z,2.56
2018-03-26T05:47:51.391Z,2.56
2018-03-26T05:48:40.480Z,2.55
2018-03-26T05:49:29.542Z,2.65
2018-03-26T05:50:18.647Z,2.61
2018-03-26T05:51:07.723Z,2.32
2018-03-26T05:51:56.788Z,2.17
2018-03-26T05:52:45.867Z,2.11
2018-03-26T05:53:34.937Z,2.19
2018-03-26T05:54:24.062Z,2.24
2018-03-26T05:55:13.132Z,2.35
2018-03-26T05:56:02.242Z,2.41
2018-03-26T05:56:51.330Z,2.52
2018-03-26T05:57:40.405Z,2.59
2018-03-26T05:58:29.480Z,2.67
2018-03-26T05:59:18.558Z,2.73
2018-03-26T06:00:07.668Z,2.80
2018-03-26T06:00:56.748Z,2.74
2018-03-26T06:01:45.964Z,2.66
2018-03-26T06:02:35.032Z,2.70
2018-03-26T06:03:24.125Z,2.83
2018-03-26T06:04:13.197Z,2.90
2018-03-26T06:05:02.267Z,2.94
2018-03-26T06:05:51.347Z,3.01
2018-03-26T06:06:40.414Z,3.03
2018-03-26T06:07:29.607Z,3.07
2018-03-26T06:08:18.686Z,3.03
2018-03-26T06:09:07.850Z,2.97
2018-03-26T06:09:56.914Z,2.97
2018-03-26T06:10:45.992Z,3.02
2018-03-26T06:11:35.068Z,3.00
2018-03-26T06:12:24.169Z,2.99
2018-03-26T06:13:13.241Z,2.97
2018-03-26T06:14:02.316Z,2.94
2018-03-26T06:14:51.378Z,2.88
2018-03-26T06:15:40.444Z,2.95
2018-03-26T06:16:29.551Z,3.01
2018-03-26T06:17:18.650Z,3.02
2018-03-26T06:18:07.916Z,3.02
2018-03-26T06:18:57.138Z,3.06
2018-03-26T06:19:46.224Z,3.04
2018-03-26T06:20:35.326Z,3.05
2018-03-26T06:21:24.424Z,3.02
2018-03-26T06:22:13.512Z,3.06
2018-03-26T06:23:02.617Z,3.02
2018-03-26T06:23:51.714Z,2.98
2018-03-26T06:24:40.851Z,3.05
2018-03-26T06:25:30.028Z,3.01
2018-03-26T06:26:19.349Z,3.00
2018-03-26T06:27:08.440Z,2.97
2018-03-26T06:27:57.533Z,3.02
2018-03-26T06:28:46.638Z,3.03
2018-03-26T06:29:35.741Z,2.88
2018-03-26T06:30:24.899Z,2.92
2018-03-26T06:31:14.057Z,2.72
2018-03-26T06:32:03.154Z,2.43
2018-03-26T06:32:52.238Z,2.37
2018-03-26T06:33:41.357Z,2.41
2018-03-26T06:34:30.448Z,2.53
2018-03-26T06:35:19.543Z,2.52
2018-03-26T06:36:14.890Z,2.34
2018-03-26T06:38:45.505Z,2.47
2018-03-26T06:40:35.506Z,2.54
2018-03-26T06:41:24.882Z,2.53
2018-03-26T06:42:13.962Z,2.58
2018-03-26T06:43:03.041Z,2.50
2018-03-26T06:43:52.359Z,2.52
2018-03-26T06:44:41.494Z,2.63
2018-03-26T06:45:30.555Z,2.64
2018-03-26T06:46:19.632Z,2.73
2018-03-26T06:47:08.726Z,2.81
2018-03-26T06:47:57.818Z,2.73
2018-03-26T06:48:46.889Z,2.78
2018-03-26T06:49:35.955Z,2.76
2018-03-26T06:50:25.090Z,2.73
2018-03-26T06:51:14.140Z,2.67
2018-03-26T06:52:03.203Z,2.68
2018-03-26T06:52:52.361Z,2.72
2018-03-26T06:53:41.432Z,2.83
2018-03-26T06:54:30.513Z,2.80
2018-03-26T06:55:19.573Z,2.81
2018-03-26T06:56:08.646Z,2.87
2018-03-26T06:57:00.486Z,2.91
2018-03-26T06:57:49.570Z,2.94
2018-03-26T06:58:38.783Z,2.92
2018-03-26T06:59:27.866Z,2.93
2018-03-26T07:00:16.941Z,2.94
2018-03-26T07:01:06.303Z,3.00
2018-03-26T07:01:55.342Z,3.04
2018-03-26T13:58:43.640Z,6.46
2018-03-26T13:59:32.955Z,6.44
2018-03-26T14:00:22.131Z,6.51
2018-03-26T14:01:11.290Z,6.49
2018-03-26T14:02:01.675Z,6.41
2018-03-26T14:02:50.828Z,6.48
2018-03-26T14:03:40.035Z,6.55
2018-03-26T14:04:29.291Z,6.59
2018-03-26T14:05:18.532Z,6.54
2018-03-26T14:06:07.735Z,6.55
2018-03-26T14:06:57.672Z,6.56
2018-03-26T14:07:46.841Z,6.66
2018-03-26T14:08:47.903Z,6.71
2018-03-26T14:09:48.877Z,6.82
2018-03-26T14:10:49.732Z,6.75
2018-03-26T14:11:50.620Z,6.82
2018-03-26T14:12:51.469Z,6.81
2018-03-26T14:13:52.382Z,6.88
2018-03-26T14:14:53.499Z,6.84
2018-03-26T14:15:54.308Z,6.75
2018-03-26T14:16:55.213Z,6.72
2018-03-26T14:17:49.816Z,6.74
2018-03-26T14:18:39.092Z,6.62
2018-03-26T14:19:28.305Z,6.64
2018-03-26T14:20:17.479Z,6.70
2018-03-26T14:21:06.648Z,6.74
2018-03-26T14:21:56.591Z,6.69
2018-03-26T14:22:45.748Z,6.72
2018-03-26T14:23:35.791Z,6.73
2018-03-26T14:24:24.990Z,6.77
2018-03-26T14:25:14.153Z,6.80
2018-03-26T14:26:03.277Z,6.81
2018-03-26T14:26:52.393Z,6.76
2018-03-26T14:27:41.513Z,6.78
2018-03-26T14:28:30.673Z,6.87
2018-03-26T14:29:19.822Z,6.82
2018-03-26T14:30:09.839Z,6.84
2018-03-26T14:30:58.950Z,6.88
2018-03-26T14:31:48.053Z,6.91
2018-03-26T14:32:38.155Z,6.85
2018-03-26T14:33:27.289Z,6.89
2018-03-26T14:34:17.335Z,6.90
2018-03-26T14:35:32.723Z,6.89
2018-03-26T14:36:21.872Z,6.87
2018-03-26T14:37:11.424Z,6.96
2018-03-26T14:38:01.213Z,6.96
2018-03-26T14:38:50.540Z,6.92
2018-03-26T14:39:39.710Z,6.86
2018-03-26T14:40:28.886Z,6.94
2018-03-26T14:41:17.979Z,6.96
2018-03-26T14:42:07.072Z,6.99
2018-03-26T14:42:56.219Z,7.02
2018-03-26T14:43:45.372Z,7.00
2018-03-26T14:44:34.507Z,6.91
2018-03-26T14:45:23.621Z,6.64
2018-03-26T14:46:12.745Z,6.49
2018-03-26T14:47:01.885Z,6.34
2018-03-26T14:47:51.000Z,6.51
2018-03-26T14:48:40.228Z,6.61
2018-03-26T14:49:29.365Z,6.67
2018-03-26T14:50:18.490Z,6.73
2018-03-26T14:51:07.624Z,6.74
2018-03-26T14:51:56.773Z,6.77
2018-03-26T14:52:45.952Z,6.77
2018-03-26T14:53:35.101Z,6.77
2018-03-26T14:54:24.327Z,6.70
2018-03-26T14:55:13.483Z,6.67
2018-03-26T14:56:02.704Z,6.74
2018-03-26T14:56:51.834Z,6.66
2018-03-26T14:57:40.960Z,6.64
2018-03-26T14:58:30.132Z,6.82
2018-03-26T14:59:19.290Z,7.16
2018-03-26T15:00:08.606Z,7.13
2018-03-26T15:00:57.739Z,7.13
2018-03-26T15:01:46.870Z,7.12
2018-03-26T15:02:35.992Z,7.03
2018-03-26T15:03:25.137Z,7.03
2018-03-26T15:04:14.380Z,7.03
2018-03-26T15:05:03.686Z,7.05
2018-03-26T15:05:52.864Z,7.08
2018-03-26T15:06:42.028Z,7.02
2018-03-26T15:07:31.175Z,7.07
2018-03-26T15:08:20.301Z,7.00
2018-03-26T15:09:09.547Z,6.98
2018-03-26T15:09:58.678Z,6.98
2018-03-26T15:10:47.845Z,7.07
2018-03-26T15:11:36.976Z,7.06
2018-03-26T15:12:26.104Z,7.05
2018-03-26T15:13:15.228Z,7.06
2018-03-26T15:14:04.403Z,7.04
2018-03-26T15:14:53.612Z,7.05
2018-03-26T15:15:42.734Z,7.05
2018-03-26T15:16:31.911Z,7.10
2018-03-26T15:17:21.024Z,7.14
2018-03-26T15:18:10.178Z,7.12
2018-03-26T15:18:59.288Z,7.10
2018-03-26T15:19:48.399Z,7.06
2018-03-26T15:20:37.629Z,6.94
2018-03-26T15:21:26.756Z,6.98
2018-03-26T15:22:15.876Z,7.03
2018-03-26T15:23:05.007Z,7.11
2018-03-26T15:23:54.130Z,7.06
2018-03-26T15:24:43.245Z,7.09
2018-03-26T15:25:32.572Z,7.10
2018-03-26T15:26:21.805Z,7.07
2018-03-26T15:27:10.995Z,7.09
2018-03-26T15:28:00.069Z,7.12
2018-03-26T15:28:49.189Z,7.09
2018-03-26T15:29:38.309Z,7.14
2018-03-26T15:30:27.435Z,7.13
2018-03-26T15:31:16.621Z,7.16
2018-03-26T15:32:05.803Z,7.20
2018-03-26T15:32:54.928Z,7.21
2018-03-26T15:33:44.057Z,7.17
2018-03-26T15:34:33.215Z,7.17
2018-03-26T15:35:22.349Z,7.20
2018-03-26T15:36:11.469Z,7.20
2018-03-26T15:37:00.654Z,7.17
2018-03-26T15:37:49.841Z,7.13
2018-03-26T15:38:39.060Z,7.11
2018-03-26T15:39:28.254Z,7.09
2018-03-26T15:40:17.385Z,7.11
2018-03-26T15:41:06.509Z,7.17
2018-03-26T15:41:55.632Z,7.19
2018-03-26T15:42:44.760Z,7.14
2018-03-26T15:43:33.893Z,7.14
2018-03-26T15:44:23.015Z,7.12
2018-03-26T15:45:12.285Z,7.08
2018-03-26T15:46:01.404Z,7.05
2018-03-26T15:46:50.542Z,7.07
2018-03-26T15:47:39.688Z,7.06
2018-03-26T15:48:28.881Z,7.04
2018-03-26T15:49:18.062Z,7.01
2018-03-26T15:50:07.272Z,7.01
2018-03-26T15:50:56.535Z,7.03
2018-03-26T15:51:45.676Z,7.04
2018-03-26T15:52:34.812Z,7.00
2018-03-26T15:53:23.980Z,7.06
2018-03-26T15:54:13.098Z,6.99
2018-03-26T15:55:02.252Z,7.01
2018-03-26T15:55:51.369Z,6.96
2018-03-26T15:56:40.493Z,6.94
2018-03-26T15:57:29.636Z,6.93
2018-03-26T15:58:18.760Z,6.69
2018-03-26T15:59:07.960Z,6.53
2018-03-26T15:59:57.189Z,6.51
2018-03-26T16:00:46.341Z,6.58
2018-03-26T16:01:35.486Z,6.70
2018-03-26T16:02:24.656Z,6.68
2018-03-26T16:03:19.276Z,6.71
2018-03-26T16:04:08.512Z,6.74
2018-03-26T16:04:58.579Z,6.78
2018-03-26T16:05:47.710Z,6.83
2018-03-26T16:06:36.857Z,6.83
2018-03-26T16:07:26.009Z,6.81
2018-03-26T16:08:15.136Z,6.82
2018-03-26T16:09:04.377Z,6.80
2018-03-26T16:09:53.707Z,6.80
2018-03-26T16:10:42.837Z,6.75
2018-03-26T16:11:31.975Z,6.76
2018-03-26T16:12:21.099Z,6.77
2018-03-26T16:13:10.245Z,6.77
2018-03-26T16:13:59.390Z,6.77
2018-03-26T16:14:48.514Z,6.80
2018-03-26T16:15:37.752Z,6.74
2018-03-26T16:16:26.891Z,6.67
2018-03-26T16:17:16.037Z,6.68
2018-03-26T16:18:05.212Z,6.70
2018-03-26T16:18:54.556Z,6.72
2018-03-26T16:19:43.828Z,6.72
2018-03-26T16:20:33.080Z,6.73
2018-03-26T16:21:22.214Z,6.74
2018-03-26T16:22:11.369Z,6.73
2018-03-26T16:23:00.496Z,6.63
2018-03-26T16:23:49.625Z,6.65
2018-03-26T16:24:38.755Z,6.65
2018-03-26T16:25:27.873Z,6.68
2018-03-26T16:26:17.067Z,6.78
2018-03-26T16:27:06.214Z,6.65
2018-03-26T16:27:55.335Z,6.69
2018-03-26T16:28:44.461Z,6.66
2018-03-26T16:29:33.681Z,6.65
2018-03-26T16:30:22.797Z,6.67
2018-03-26T16:31:11.914Z,6.62
2018-03-26T16:32:01.035Z,6.55
2018-03-26T16:32:50.214Z,6.62
2018-03-26T16:33:39.340Z,6.65
2018-03-26T16:34:28.466Z,6.68
2018-03-26T16:35:17.600Z,6.70
2018-03-26T16:36:06.733Z,6.44
2018-03-26T16:36:55.850Z,6.34
2018-03-26T16:37:45.074Z,6.35
2018-03-26T16:38:34.200Z,6.42
2018-03-26T16:39:23.386Z,6.34
2018-03-26T16:40:12.519Z,6.17
2018-03-26T16:41:01.670Z,6.10
2018-03-26T16:41:50.905Z,6.09
2018-03-26T16:42:44.890Z,6.14
2018-03-26T16:43:34.083Z,6.09
2018-03-26T16:44:23.338Z,6.27
2018-03-26T16:45:12.468Z,6.26
2018-03-26T16:46:01.642Z,6.18
2018-03-26T16:46:50.787Z,6.24
2018-03-26T16:47:39.934Z,6.27
2018-03-26T16:48:29.090Z,6.25
2018-03-26T16:49:18.234Z,6.24
2018-03-26T16:50:07.455Z,6.17
2018-03-26T16:50:56.624Z,6.18
2018-03-26T16:51:45.816Z,6.16
2018-03-26T16:52:34.949Z,6.18
2018-03-26T16:53:24.087Z,6.21
2018-03-26T16:54:13.215Z,6.41
2018-03-26T16:55:02.350Z,6.47
2018-03-26T16:55:51.589Z,6.26
2018-03-26T16:56:40.731Z,6.17
2018-03-26T16:57:29.871Z,5.99
2018-03-26T16:58:19.007Z,6.05
2018-03-26T16:59:08.142Z,6.24
2018-03-26T16:59:57.299Z,6.21
2018-03-26T17:00:46.459Z,6.22
2018-03-26T17:01:35.714Z,6.20
2018-03-26T17:02:24.855Z,6.15
2018-03-26T17:03:14.043Z,6.03
2018-03-26T17:04:03.492Z,5.98
2018-03-26T17:04:52.630Z,5.99
2018-03-26T17:05:41.757Z,5.93
2018-03-26T17:06:30.896Z,5.87
2018-03-26T17:07:20.091Z,5.91
2018-03-26T17:08:09.215Z,5.91
2018-03-26T17:08:58.356Z,6.00
2018-03-26T17:09:47.495Z,5.92
2018-03-26T17:10:36.677Z,5.93
2018-03-26T17:11:25.813Z,6.07
2018-03-26T17:12:14.942Z,5.96
2018-03-26T17:13:04.124Z,5.80
2018-03-26T17:13:53.261Z,5.70
2018-03-26T17:14:42.399Z,5.72
2018-03-26T17:15:31.530Z,5.87
2018-03-26T17:16:20.664Z,6.04
2018-03-26T17:17:09.803Z,6.04
2018-03-26T17:17:58.937Z,6.04
2018-03-26T17:18:48.256Z,6.04
2018-03-26T17:19:37.437Z,6.01
2018-03-26T17:20:26.565Z,6.00
2018-03-26T17:21:15.698Z,6.01
2018-03-26T17:22:04.896Z,6.09
2018-03-26T17:22:54.085Z,6.23
2018-03-26T17:23:43.215Z,6.32
2018-03-26T17:24:32.644Z,6.35
2018-03-26T17:25:21.861Z,6.41
2018-03-26T17:26:10.983Z,6.37
2018-03-26T17:27:00.117Z,6.34
2018-03-26T17:27:49.248Z,6.64
2018-03-26T17:28:38.390Z,6.77
2018-03-26T17:29:27.524Z,6.74
2018-03-26T17:30:16.707Z,6.69
2018-03-26T17:31:05.887Z,6.74
2018-03-26T17:31:55.037Z,6.67
2018-03-26T17:32:44.160Z,6.62
2018-03-26T17:33:33.357Z,6.56
2018-03-26T17:34:22.478Z,6.55
2018-03-26T17:35:11.600Z,6.57
2018-03-26T17:36:00.843Z,6.55
2018-03-26T17:36:50.024Z,6.49
2018-03-26T17:37:39.196Z,6.47
2018-03-26T17:38:28.392Z,6.41
2018-03-26T17:39:17.587Z,6.33
2018-03-26T17:40:06.724Z,6.35
2018-03-26T17:40:55.896Z,6.38
2018-03-26T17:41:45.024Z,6.43
2018-03-26T17:42:39.757Z,6.37
2018-03-26T17:43:28.895Z,6.34
2018-03-26T17:44:18.021Z,6.31
2018-03-26T17:45:07.180Z,6.27
2018-03-26T17:45:56.306Z,6.22
2018-03-26T17:46:45.454Z,6.09
2018-03-26T17:47:34.587Z,6.14
2018-03-26T17:48:23.764Z,6.17
2018-03-26T17:49:12.921Z,6.15
2018-03-26T17:50:02.097Z,6.03
2018-03-26T17:50:51.280Z,6.04
2018-03-26T17:51:40.409Z,6.02
2018-03-26T17:52:29.549Z,6.06
2018-03-26T17:53:18.695Z,6.08
2018-03-26T17:54:07.932Z,6.03
2018-03-26T17:54:57.059Z,5.91
2018-03-26T17:55:46.254Z,5.69